Time;durP1;ratioP1;P1;durP2;ratioP2;P2;SDS_P1;SDS_P2;PMS_P1;PMS_P2;Temp;Humidity;BMP_temperature;BMP_pressure;BME280_temperature;BME280_humidity;BME280_pressure;Samples;Min_cycle;Max_cycle;Signal;HPM_P1;HPM_P2
2022/08/22 00:02:17;;;;;;;6.05;2.17;;;15.90;99.90;;;;;;5011816;28;20037;-63
2022/08/22 00:05:06;;;;;;;5.30;2.30;;;15.90;99.90;;;;;;4997567;28;20066;-64
2022/08/22 00:07:49;;;;;;;4.88;2.63;;;15.80;99.90;;;;;;5031825;28;20058;-63
2022/08/22 00:10:23;;;;;;;4.22;2.35;;;15.70;99.90;;;;;;5031664;28;20033;-64
2022/08/22 00:12:54;;;;;;;5.25;2.38;;;15.50;99.90;;;;;;5031961;28;20049;-64
2022/08/22 00:15:26;;;;;;;8.85;2.63;;;15.50;99.90;;;;;;5031966;28;20036;-64
2022/08/22 00:17:59;;;;;;;7.10;2.53;;;15.50;99.90;;;;;;5031830;28;20127;-63
2022/08/22 00:20:47;;;;;;;8.93;2.80;;;15.40;99.90;;;;;;5031804;28;20044;-63
2022/08/22 00:23:28;;;;;;;6.32;3.33;;;15.30;99.90;;;;;;5034964;28;20041;-64
2022/08/22 00:26:07;;;;;;;7.65;2.92;;;15.30;99.90;;;;;;5021416;28;20068;-64
2022/08/22 00:28:59;;;;;;;6.72;2.92;;;15.40;99.90;;;;;;5017704;28;20092;-64
2022/08/22 00:31:32;;;;;;;6.32;2.92;;;15.30;99.90;;;;;;5017342;28;20479;-64
2022/08/22 00:34:14;;;;;;;6.90;2.60;;;15.40;99.90;;;;;;5035332;28;20041;-64
2022/08/22 00:36:56;;;;;;;5.45;2.40;;;15.50;99.90;;;;;;5035219;28;20041;-63
2022/08/22 00:39:57;;;;;;;8.25;3.03;;;15.50;99.90;;;;;;5017709;28;20038;-63
2022/08/22 00:42:56;;;;;;;6.20;3.05;;;15.40;99.90;;;;;;5034769;28;20072;-63
2022/08/22 00:45:46;;;;;;;12.10;4.30;;;15.60;99.90;;;;;;5035204;28;20073;-63
2022/08/22 00:48:31;;;;;;;13.35;3.42;;;15.60;99.90;;;;;;5023284;28;20059;-64
2022/08/22 00:51:09;;;;;;;6.57;2.58;;;15.70;99.90;;;;;;5034970;28;20033;-64
2022/08/22 00:54:10;;;;;;;4.75;2.10;;;15.40;99.90;;;;;;5035508;28;20048;-63
2022/08/22 00:57:01;;;;;;;7.32;2.60;;;15.30;99.90;;;;;;5021307;28;20084;-64
2022/08/22 00:59:41;;;;;;;4.45;2.17;;;15.50;99.90;;;;;;5035032;28;20508;-63
2022/08/22 01:02:28;;;;;;;4.88;2.38;;;15.70;99.90;;;;;;5021850;28;20577;-63
2022/08/22 01:05:27;;;;;;;4.55;2.25;;;15.30;99.90;;;;;;5016604;28;20531;-64
2022/08/22 01:08:09;;;;;;;6.95;2.83;;;15.50;99.90;;;;;;5034800;28;20044;-63
2022/08/22 01:10:55;;;;;;;6.90;2.97;;;15.30;99.90;;;;;;4984328;28;20045;-64
2022/08/22 01:13:36;;;;;;;6.07;2.60;;;15.20;99.90;;;;;;5030135;28;20052;-63
2022/08/22 01:16:26;;;;;;;4.13;1.80;;;15.30;99.90;;;;;;5034952;28;20095;-64
2022/08/22 01:19:36;;;;;;;6.97;2.80;;;15.40;99.90;;;;;;5016767;28;20041;-63
2022/08/22 01:22:20;;;;;;;6.60;2.40;;;15.40;99.90;;;;;;5034179;28;20499;-63
2022/08/22 01:25:25;;;;;;;6.78;3.05;;;15.10;99.90;;;;;;5034655;28;20095;-64
2022/08/22 01:28:27;;;;;;;6.95;3.10;;;14.90;99.90;;;;;;4996679;28;20103;-64
2022/08/22 01:30:59;;;;;;;7.90;3.67;;;15.20;99.90;;;;;;5034057;28;20034;-64
2022/08/22 01:33:48;;;;;;;5.20;2.65;;;15.10;99.90;;;;;;5033569;28;20045;-63
2022/08/22 01:36:47;;;;;;;6.05;2.67;;;15.20;99.90;;;;;;5020814;28;20499;-63
2022/08/22 01:39:30;;;;;;;7.43;4.00;;;15.00;99.90;;;;;;5016549;28;20037;-63
2022/08/22 01:42:33;;;;;;;7.05;3.03;;;15.10;99.90;;;;;;5015984;28;20055;-64
2022/08/22 01:45:17;;;;;;;7.85;3.40;;;15.10;99.90;;;;;;5006780;28;20041;-63
2022/08/22 01:47:43;;;;;;;5.07;3.05;;;14.90;99.90;;;;;;5034132;28;20091;-63
2022/08/22 01:50:22;;;;;;;8.40;3.63;;;15.00;99.90;;;;;;5015184;28;20054;-64
2022/08/22 01:52:58;;;;;;;5.95;3.50;;;14.90;99.90;;;;;;5032089;28;20519;-64
2022/08/22 01:55:59;;;;;;;3.80;2.10;;;14.80;99.90;;;;;;5033618;28;20053;-63
2022/08/22 01:58:29;;;;;;;2.08;1.30;;;14.90;99.90;;;;;;5002199;28;20046;-63
2022/08/22 02:01:18;;;;;;;3.55;1.75;;;14.70;99.90;;;;;;5033480;28;20045;-63
2022/08/22 02:04:13;;;;;;;6.78;2.67;;;14.60;99.90;;;;;;5033508;28;20068;-63
2022/08/22 02:06:57;;;;;;;4.18;2.58;;;14.80;99.90;;;;;;5033476;28;20057;-64
2022/08/22 02:09:37;;;;;;;6.95;3.10;;;14.50;99.90;;;;;;5033303;28;20034;-64
2022/08/22 02:12:40;;;;;;;4.93;3.28;;;14.50;99.90;;;;;;5033670;28;20042;-63
2022/08/22 02:15:43;;;;;;;6.75;3.88;;;14.60;99.90;;;;;;5006118;28;20124;-63
2022/08/22 02:18:19;;;;;;;6.63;3.70;;;14.50;99.90;;;;;;5020494;28;20048;-63
2022/08/22 02:20:57;;;;;;;6.07;3.13;;;14.70;99.90;;;;;;5033386;28;20380;-63
2022/08/22 02:23:42;;;;;;;4.88;3.00;;;14.70;99.90;;;;;;5015814;28;20080;-64
2022/08/22 02:26:20;;;;;;;;;;;14.70;99.90;;;;;;5033831;28;20060;-63
2022/08/22 02:29:16;;;;;;;5.20;4.00;;;14.90;99.90;;;;;;5033409;28;19924;-64
2022/08/22 02:31:54;;;;;;;6.22;4.43;;;14.70;99.90;;;;;;5019450;28;20037;-63
2022/08/22 02:34:43;;;;;;;8.13;4.93;;;14.80;99.90;;;;;;5015612;28;20048;-63
2022/08/22 02:37:28;;;;;;;7.65;3.28;;;14.60;99.90;;;;;;5022360;28;20040;-63
2022/08/22 02:40:03;;;;;;;;;;;14.80;99.90;;;;;;5033687;28;20037;-63
2022/08/22 02:42:47;;;;;;;7.00;5.22;;;14.70;99.90;;;;;;5032833;28;19924;-63
2022/08/22 02:45:23;;;;;;;9.55;5.80;;;14.80;99.90;;;;;;5032513;28;20393;-64
2022/08/22 02:48:18;;;;;;;10.48;5.78;;;14.50;99.90;;;;;;5014989;28;20120;-63
2022/08/22 02:51:00;;;;;;;12.00;5.88;;;14.50;99.90;;;;;;5004547;28;20395;-63
2022/08/22 02:53:45;;;;;;;12.23;5.72;;;14.30;99.90;;;;;;5014813;28;20033;-64
2022/08/22 02:56:44;;;;;;;9.75;4.85;;;14.40;99.90;;;;;;5015355;28;20068;-63
2022/08/22 02:59:27;;;;;;;9.00;5.15;;;14.30;99.90;;;;;;5021339;28;20127;-64
2022/08/22 03:01:54;;;;;;;7.50;5.07;;;14.40;99.90;;;;;;5032196;28;20458;-63
2022/08/22 03:04:26;;;;;;;6.50;4.95;;;14.40;99.90;;;;;;5032614;28;20103;-63
2022/08/22 03:07:20;;;;;;;6.15;5.05;;;14.50;99.90;;;;;;5032363;28;20128;-63
2022/08/22 03:10:09;;;;;;;7.60;5.13;;;14.40;99.90;;;;;;5032420;28;20045;-63
2022/08/22 03:12:51;;;;;;;8.70;5.60;;;14.40;99.90;;;;;;4998629;28;20045;-63
2022/08/22 03:15:17;;;;;;;7.70;4.60;;;14.40;99.90;;;;;;5032399;28;20511;-63
2022/08/22 03:17:59;;;;;;;6.35;4.75;;;14.40;99.90;;;;;;5032458;28;20041;-63
2022/08/22 03:20:58;;;;;;;7.55;4.43;;;14.50;99.90;;;;;;5032042;28;20041;-63
2022/08/22 03:23:39;;;;;;;8.50;4.93;;;14.70;99.90;;;;;;5014744;28;20073;-63
2022/08/22 03:26:27;;;;;;;9.10;4.97;;;14.70;99.90;;;;;;5014542;28;20042;-64
2022/08/22 03:29:01;;;;;;;8.05;4.30;;;14.80;99.90;;;;;;5014779;28;20531;-63
2022/08/22 03:31:30;;;;;;;8.98;4.80;;;14.80;99.90;;;;;;5019549;28;20052;-63
2022/08/22 03:34:17;;;;;;;7.60;4.80;;;14.60;99.90;;;;;;4998264;28;20083;-63
2022/08/22 03:36:59;;;;;;;10.38;4.50;;;14.50;99.90;;;;;;5020842;28;20064;-64
2022/08/22 03:39:45;;;;;;;10.02;5.40;;;14.50;99.90;;;;;;5014303;28;20053;-63
2022/08/22 03:42:51;;;;;;;7.53;4.40;;;14.30;99.90;;;;;;5014673;28;20115;-63
2022/08/22 03:45:49;;;;;;;7.47;3.95;;;14.20;99.90;;;;;;5021269;28;20115;-63
2022/08/22 03:48:34;;;;;;;6.45;4.30;;;14.20;99.90;;;;;;5006538;28;20057;-63
2022/08/22 03:51:18;;;;;;;;;;;14.10;99.90;;;;;;5014567;28;20549;-63
2022/08/22 03:54:08;;;;;;;9.73;4.32;;;14.00;99.90;;;;;;5031905;28;19924;-64
2022/08/22 03:57:31;;;;;;;4.30;3.40;;;14.20;99.90;;;;;;5032996;28;20103;-63
2022/08/22 04:00:35;;;;;;;7.45;4.18;;;14.20;99.90;;;;;;4976702;28;20053;-63
2022/08/22 04:03:19;;;;;;;9.43;4.70;;;14.10;99.90;;;;;;5026976;28;20052;-63
2022/08/22 04:05:59;;;;;;;6.07;4.43;;;13.90;99.90;;;;;;5035778;28;20511;-63
2022/08/22 04:08:53;;;;;;;10.00;4.57;;;14.00;99.90;;;;;;5018391;28;20053;-63
2022/08/22 04:11:47;;;;;;;7.75;4.28;;;14.10;99.90;;;;;;4979658;28;20046;-63
2022/08/22 04:14:31;;;;;;;5.32;4.18;;;13.90;99.90;;;;;;5017480;28;20038;-63
2022/08/22 04:17:18;;;;;;;4.93;3.10;;;13.90;99.90;;;;;;5035614;28;20052;-64
2022/08/22 04:20:31;;;;;;;3.42;2.67;;;14.00;99.90;;;;;;5024720;28;20427;-63
2022/08/22 04:23:13;;;;;;;4.40;3.58;;;13.70;99.90;;;;;;5023143;28;20033;-63
2022/08/22 04:25:46;;;;;;;32.63;4.45;;;13.70;99.90;;;;;;5035239;28;20045;-63
2022/08/22 04:28:16;;;;;;;5.45;3.15;;;13.70;99.90;;;;;;5035617;28;20056;-64
2022/08/22 04:30:59;;;;;;;4.13;2.50;;;13.60;99.90;;;;;;4987481;28;20042;-63
2022/08/22 04:33:32;;;;;;;4.30;2.92;;;13.50;99.90;;;;;;5035373;28;20068;-63
2022/08/22 04:36:19;;;;;;;3.45;1.90;;;13.40;99.90;;;;;;5035691;28;20041;-63
2022/08/22 04:38:57;;;;;;;148.55;8.27;;;13.50;99.90;;;;;;5017653;28;20038;-63
2022/08/22 04:42:04;;;;;;;4.05;2.20;;;13.40;99.90;;;;;;5035029;28;20034;-63
2022/08/22 04:44:52;;;;;;;6.40;3.10;;;13.40;99.90;;;;;;5016780;28;20050;-63
2022/08/22 04:47:23;;;;;;;4.47;2.25;;;13.40;99.90;;;;;;5035033;28;20090;-63
2022/08/22 04:50:14;;;;;;;4.63;2.40;;;13.50;99.90;;;;;;5016960;28;20041;-63
2022/08/22 04:53:08;;;;;;;6.07;3.78;;;13.50;99.90;;;;;;5017126;28;20046;-63
2022/08/22 04:55:53;;;;;;;6.40;4.22;;;13.50;99.90;;;;;;5023435;28;20052;-63
2022/08/22 04:58:29;;;;;;;5.68;4.50;;;13.50;99.90;;;;;;5016736;28;20488;-63
2022/08/22 05:01:22;;;;;;;4.90;2.55;;;13.60;99.90;;;;;;5017011;28;20038;-63
2022/08/22 05:04:01;;;;;;;4.10;2.95;;;13.50;99.90;;;;;;5017148;28;20558;-63
2022/08/22 05:06:30;;;;;;;3.53;3.22;;;13.60;99.90;;;;;;5016948;28;20042;-63
2022/08/22 05:09:03;;;;;;;6.57;3.65;;;13.60;99.90;;;;;;5033380;28;20119;-63
2022/08/22 05:11:30;;;;;;;8.38;4.18;;;13.60;99.90;;;;;;5034525;28;20052;-63
2022/08/22 05:14:01;;;;;;;8.45;4.80;;;13.90;99.90;;;;;;5034497;28;20499;-63
2022/08/22 05:16:37;;;;;;;6.82;4.40;;;13.60;99.90;;;;;;5007399;28;20057;-63
2022/08/22 05:19:08;;;;;;;11.27;4.30;;;13.80;99.90;;;;;;5013459;28;20049;-63
2022/08/22 05:21:39;;;;;;;10.30;5.05;;;13.60;99.90;;;;;;5016465;28;20073;-63
2022/08/22 05:24:10;;;;;;;6.40;4.43;;;13.60;99.90;;;;;;5034210;28;20479;-63
2022/08/22 05:26:41;;;;;;;6.07;3.80;;;13.70;99.90;;;;;;5034410;28;20050;-63
2022/08/22 05:29:09;;;;;;;6.85;4.03;;;13.90;99.90;;;;;;5016620;28;20492;-63
2022/08/22 05:31:53;;;;;;;8.23;4.30;;;14.00;99.90;;;;;;5034042;28;20041;-63
2022/08/22 05:34:23;;;;;;;6.10;4.35;;;14.00;99.90;;;;;;5016408;28;20041;-64
2022/08/22 05:36:53;;;;;;;4.80;3.58;;;13.90;99.90;;;;;;5034042;28;20041;-64
2022/08/22 05:39:23;;;;;;;6.18;3.90;;;14.00;99.90;;;;;;5034052;28;20045;-63
2022/08/22 05:41:49;;;;;;;5.43;4.28;;;13.80;99.90;;;;;;5033708;28;20090;-64
2022/08/22 05:44:26;;;;;;;5.57;4.07;;;14.00;99.90;;;;;;5015999;28;20575;-64
2022/08/22 05:47:01;;;;;;;5.70;3.95;;;13.80;99.90;;;;;;5015898;28;20076;-64
2022/08/22 05:49:43;;;;;;;11.25;4.97;;;13.80;99.90;;;;;;5027979;28;20056;-63
2022/08/22 05:52:35;;;;;;;10.52;4.70;;;13.90;99.90;;;;;;5032136;28;20041;-63
2022/08/22 05:55:23;;;;;;;13.32;5.45;;;14.20;99.90;;;;;;5031694;28;20095;-62
2022/08/22 05:58:07;;;;;;;7.13;5.40;;;14.20;99.90;;;;;;5003081;28;20057;-63
2022/08/22 06:00:40;;;;;;;12.70;6.45;;;14.20;99.90;;;;;;5035256;28;20498;-64
2022/08/22 06:03:25;;;;;;;8.80;5.22;;;14.40;99.90;;;;;;5023910;28;20515;-63
2022/08/22 06:05:55;;;;;;;5.32;4.72;;;14.30;99.90;;;;;;5031373;28;20103;-63
2022/08/22 06:08:32;;;;;;;8.45;5.65;;;14.40;99.90;;;;;;5043508;28;20045;-63
2022/08/22 06:11:06;;;;;;;9.18;5.90;;;14.50;99.90;;;;;;5011096;28;20056;-63
2022/08/22 06:13:47;;;;;;;13.85;5.97;;;14.60;99.90;;;;;;5016425;28;20573;-62
2022/08/22 06:16:19;;;;;;;8.95;5.05;;;14.70;99.90;;;;;;5011338;28;20044;-63
2022/08/22 06:18:48;;;;;;;9.98;5.35;;;14.80;99.90;;;;;;5013857;28;20045;-62
2022/08/22 06:21:47;;;;;;;9.45;5.70;;;14.80;99.90;;;;;;5012583;28;20113;-62
2022/08/22 06:24:21;;;;;;;10.77;5.85;;;14.80;99.90;;;;;;5012650;28;20041;-63
2022/08/22 06:26:50;;;;;;;10.68;6.35;;;14.90;99.90;;;;;;5034348;28;20120;-63
2022/08/22 06:29:47;;;;;;;10.18;6.63;;;15.10;99.90;;;;;;5016488;28;20049;-64
2022/08/22 06:32:20;;;;;;;12.27;6.15;;;15.10;99.90;;;;;;5014801;28;20518;-64
2022/08/22 06:35:02;;;;;;;13.60;6.10;;;15.30;99.90;;;;;;5022701;28;20372;-64
2022/08/22 06:37:40;;;;;;;13.13;6.53;;;15.20;99.90;;;;;;5032032;28;20049;-64
2022/08/22 06:40:09;;;;;;;13.95;6.82;;;15.20;99.90;;;;;;5039998;28;20384;-63
2022/08/22 06:42:48;;;;;;;13.07;6.15;;;15.40;99.90;;;;;;5032666;28;20050;-64
2022/08/22 06:46:04;;;;;;;13.43;7.53;;;15.50;99.90;;;;;;5007397;28;20053;-63
2022/08/22 06:48:30;;;;;;;11.80;7.43;;;15.50;99.90;;;;;;5016436;28;20049;-63
2022/08/22 06:50:58;;;;;;;13.82;7.05;;;15.50;99.90;;;;;;5012514;28;20037;-64
2022/08/22 06:53:55;;;;;;;12.32;6.53;;;15.70;99.90;;;;;;5030738;28;20041;-64
2022/08/22 06:56:25;;;;;;;16.13;8.05;;;15.60;99.90;;;;;;5001445;28;20064;-63
2022/08/22 06:58:55;;;;;;;14.43;6.90;;;15.60;99.90;;;;;;5021453;28;20053;-64
2022/08/22 07:01:25;;;;;;;8.30;6.32;;;15.70;99.90;;;;;;5012182;28;20060;-64
2022/08/22 07:03:51;;;;;;;13.48;7.40;;;;;;;;;;4997400;28;20049;-63
2022/08/22 07:06:40;;;;;;;12.25;6.53;;;15.80;99.90;;;;;;5013044;28;20392;-64
2022/08/22 07:09:12;;;;;;;12.73;6.47;;;15.90;99.90;;;;;;5012872;28;20116;-63
2022/08/22 07:11:41;;;;;;;10.77;6.28;;;15.90;99.90;;;;;;5029964;28;20076;-63
2022/08/22 07:14:13;;;;;;;14.27;6.35;;;16.00;99.90;;;;;;5015465;28;20050;-63
2022/08/22 07:16:54;;;;;;;14.75;6.15;;;16.10;99.90;;;;;;5012579;28;20045;-63
2022/08/22 07:19:29;;;;;;;12.18;6.13;;;16.10;99.90;;;;;;5024615;28;20502;-63
2022/08/22 07:21:56;;;;;;;11.43;6.30;;;16.20;99.90;;;;;;5016893;28;20053;-64
2022/08/22 07:24:30;;;;;;;12.40;6.10;;;16.30;99.90;;;;;;5030376;28;20056;-63
2022/08/22 07:27:36;;;;;;;15.73;6.85;;;16.30;99.90;;;;;;5011937;28;20051;-63
2022/08/22 07:30:08;;;;;;;11.68;5.68;;;16.50;99.90;;;;;;5023647;28;20044;-63
2022/08/22 07:32:41;;;;;;;13.35;6.28;;;16.50;99.90;;;;;;5011646;28;20506;-63
2022/08/22 07:35:12;;;;;;;14.00;6.13;;;16.50;99.90;;;;;;5013502;28;20057;-64
2022/08/22 07:37:51;;;;;;;13.77;6.20;;;16.60;99.90;;;;;;5013754;28;20049;-63
2022/08/22 07:40:17;;;;;;;10.48;5.45;;;16.60;99.90;;;;;;5021875;28;20041;-63
2022/08/22 07:42:49;;;;;;;14.30;6.72;;;16.80;99.90;;;;;;5029788;28;20050;-64
2022/08/22 07:45:22;;;;;;;11.63;6.25;;;16.80;99.90;;;;;;5030417;28;20417;-64
2022/08/22 07:48:18;;;;;;;12.18;6.10;;;16.90;99.90;;;;;;5030781;28;20120;-63
2022/08/22 07:51:13;;;;;;;12.25;6.15;;;17.00;99.90;;;;;;5025177;28;20488;-64
2022/08/22 07:53:43;;;;;;;10.60;6.15;;;16.90;99.90;;;;;;5028478;28;20098;-64
2022/08/22 07:56:35;;;;;;;12.75;5.32;;;16.90;99.90;;;;;;5012815;28;20128;-64
2022/08/22 07:59:16;;;;;;;9.68;5.70;;;17.20;99.90;;;;;;4990029;28;20057;-62
2022/08/22 08:01:49;;;;;;;10.80;5.63;;;17.20;99.90;;;;;;5016301;28;20128;-63
2022/08/22 08:04:20;;;;;;;11.60;5.80;;;17.50;99.90;;;;;;5012449;28;20057;-63
2022/08/22 08:06:52;;;;;;;9.88;5.35;;;17.80;99.90;;;;;;5029750;28;20051;-62
2022/08/22 08:09:19;;;;;;;11.32;4.78;;;18.00;99.90;;;;;;5029083;28;20069;-64
2022/08/22 08:11:50;;;;;;;10.60;5.10;;;18.10;99.90;;;;;;5030050;28;20033;-65
2022/08/22 08:14:19;;;;;;;11.55;4.72;;;18.30;99.90;;;;;;5030337;28;20042;-63
2022/08/22 08:17:13;;;;;;;12.18;4.75;;;18.50;99.90;;;;;;5030165;28;20063;-63
2022/08/22 08:19:40;;;;;;;11.57;4.63;;;18.60;99.90;;;;;;5027442;28;20041;-63
2022/08/22 08:22:06;;;;;;;11.52;4.57;;;18.60;99.90;;;;;;5009387;28;20041;-63
2022/08/22 08:24:37;;;;;;;10.20;3.60;;;18.60;99.90;;;;;;5029041;28;20068;-64
2022/08/22 08:30:17;;;;;;;11.20;3.25;;;18.90;99.90;;;;;;5011374;28;20045;-64
2022/08/22 08:32:53;;;;;;;11.13;2.42;;;18.90;99.90;;;;;;5021779;28;20065;-64
2022/08/22 08:35:24;;;;;;;8.43;2.50;;;19.30;99.90;;;;;;5003066;28;20034;-62
2022/08/22 08:38:02;;;;;;;10.63;2.75;;;19.50;99.90;;;;;;5006755;28;20049;-63
2022/08/22 08:40:31;;;;;;;7.65;2.85;;;19.50;99.90;;;;;;5018521;28;20432;-63
2022/08/22 08:46:06;;;;;;;11.75;2.58;;;19.40;99.90;;;;;;5022465;28;20135;-63
2022/08/22 08:48:37;;;;;;;7.80;2.05;;;19.70;99.90;;;;;;5005284;28;20045;-63
2022/08/22 08:51:40;;;;;;;8.48;2.08;;;19.80;99.90;;;;;;5019111;28;20376;-63
2022/08/22 08:54:15;;;;;;;9.18;2.30;;;19.70;99.90;;;;;;4999945;28;20049;-63
2022/08/22 08:56:59;;;;;;;9.60;2.25;;;20.00;99.90;;;;;;4995925;28;20049;-63
2022/08/22 08:59:30;;;;;;;8.60;2.35;;;20.10;99.90;;;;;;5016308;28;20469;-63
2022/08/22 09:02:21;;;;;;;9.98;2.42;;;20.20;99.90;;;;;;5019569;28;20040;-64
2022/08/22 09:05:24;;;;;;;10.50;2.35;;;20.40;99.90;;;;;;5000471;28;20060;-64
2022/08/22 09:08:20;;;;;;;8.70;1.90;;;20.50;99.90;;;;;;4996351;28;20046;-62
2022/08/22 09:11:08;;;;;;;7.40;1.95;;;20.70;99.90;;;;;;5013473;28;20042;-64
2022/08/22 09:13:54;;;;;;;6.82;1.88;;;21.00;99.90;;;;;;4999060;28;20119;-62
2022/08/22 09:16:25;;;;;;;7.60;1.67;;;21.10;99.90;;;;;;5023175;28;20041;-63
2022/08/22 09:19:29;;;;;;;8.52;1.88;;;20.80;99.90;;;;;;5028362;28;20120;-63
2022/08/22 09:22:28;;;;;;;4.20;1.05;;;21.30;99.90;;;;;;5032221;28;20115;-63
2022/08/22 09:25:13;;;;;;;5.07;1.60;;;21.10;99.90;;;;;;5032421;28;20048;-62
2022/08/22 09:28:15;;;;;;;8.55;1.50;;;21.20;99.90;;;;;;5012468;28;20044;-63
2022/08/22 09:31:05;;;;;;;5.03;1.38;;;21.60;99.90;;;;;;5023383;28;20136;-62
2022/08/22 09:34:07;;;;;;;5.68;1.38;;;21.70;99.90;;;;;;5011409;28;20087;-65
2022/08/22 09:37:01;;;;;;;6.32;1.42;;;22.00;99.90;;;;;;5025272;28;20049;-63
2022/08/22 09:39:35;;;;;;;7.50;1.20;;;22.00;99.90;;;;;;5031282;28;20205;-63
2022/08/22 09:42:17;;;;;;;8.97;1.27;;;21.70;99.90;;;;;;5032313;28;20049;-64
2022/08/22 09:45:11;;;;;;;4.10;1.40;;;21.50;99.90;;;;;;5031767;28;20030;-64
2022/08/22 09:47:57;;;;;;;5.55;1.05;;;21.60;99.90;;;;;;5031725;28;20090;-64
2022/08/22 09:50:31;;;;;;;6.95;1.35;;;21.50;99.90;;;;;;5029899;28;20042;-65
2022/08/22 09:53:27;;;;;;;7.28;1.80;;;21.60;99.90;;;;;;5009310;28;20049;-63
2022/08/22 09:56:03;;;;;;;3.35;0.75;;;21.30;99.90;;;;;;5030771;28;20096;-64
2022/08/22 09:58:46;;;;;;;6.10;1.50;;;21.30;99.90;;;;;;5016158;28;20553;-65
2022/08/22 10:01:31;;;;;;;6.38;1.50;;;21.50;99.90;;;;;;5013341;28;20107;-64
2022/08/22 10:04:06;;;;;;;6.65;1.60;;;21.40;99.90;;;;;;5019289;28;20049;-64
2022/08/22 10:06:49;;;;;;;8.57;1.67;;;21.60;99.90;;;;;;5013836;28;20076;-65
2022/08/22 10:09:23;;;;;;;6.70;1.48;;;21.60;99.90;;;;;;5028448;28;20045;-64
2022/08/22 10:12:10;;;;;;;5.15;1.42;;;21.50;99.90;;;;;;5031569;28;20197;-65
2022/08/22 10:14:57;;;;;;;9.85;1.77;;;21.50;99.90;;;;;;5032104;28;20141;-64
2022/08/22 10:17:35;;;;;;;7.15;1.60;;;21.90;99.90;;;;;;5014186;28;20186;-65
2022/08/22 10:20:23;;;;;;;7.65;1.67;;;22.00;99.90;;;;;;5013693;28;20073;-65
2022/08/22 10:23:12;;;;;;;10.63;2.45;;;22.20;99.90;;;;;;5032055;28;20102;-65
2022/08/22 10:25:43;;;;;;;5.18;1.63;;;22.40;99.90;;;;;;5029321;28;20045;-64
2022/08/22 10:28:38;;;;;;;6.57;1.40;;;22.50;99.90;;;;;;5013446;28;20041;-64
2022/08/22 10:31:28;;;;;;;8.63;1.38;;;22.50;99.90;;;;;;5028963;28;20029;-64
2022/08/22 10:34:08;;;;;;;9.20;1.30;;;22.80;99.90;;;;;;5014030;28;20045;-64
2022/08/22 10:37:07;;;;;;;5.05;2.20;;;22.80;99.90;;;;;;5031462;28;20081;-64
2022/08/22 10:40:02;;;;;;;4.25;1.10;;;22.70;99.90;;;;;;4991138;28;20051;-64
2022/08/22 10:42:30;;;;;;;;;;;22.90;99.90;;;;;;5030287;28;20041;-64
2022/08/22 10:45:17;;;;;;;6.30;1.63;;;23.00;99.90;;;;;;5030937;28;20367;-64
2022/08/22 10:47:52;;;;;;;6.30;1.20;;;22.80;99.90;;;;;;5029077;28;20042;-65
2022/08/22 10:50:28;;;;;;;10.48;1.90;;;23.00;99.90;;;;;;5012964;28;20084;-65
2022/08/22 10:55:48;;;;;;;5.38;1.15;;;23.00;99.90;;;;;;5027887;28;20491;-65
2022/08/22 10:58:23;;;;;;;7.80;1.63;;;23.20;99.90;;;;;;5031206;28;20030;-65
2022/08/22 11:00:57;;;;;;;6.50;1.00;;;23.20;99.90;;;;;;5030952;28;20042;-65
2022/08/22 11:03:40;;;;;;;8.17;1.77;;;23.40;99.90;;;;;;5031269;28;20057;-65
2022/08/22 11:06:13;;;;;;;5.28;1.63;;;23.60;99.90;;;;;;5030194;28;20315;-65
2022/08/22 11:08:59;;;;;;;6.85;1.45;;;23.40;99.90;;;;;;5000371;28;20424;-65
2022/08/22 11:11:57;;;;;;;4.50;1.10;;;23.10;99.90;;;;;;5024811;28;20607;-65
2022/08/22 11:14:44;;;;;;;7.53;1.42;;;23.20;99.90;;;;;;4982969;28;20554;-65
2022/08/22 11:17:26;;;;;;;6.15;1.00;;;23.10;99.90;;;;;;5012419;28;20394;-65
2022/08/22 11:20:31;;;;;;;5.50;1.27;;;23.10;99.90;;;;;;5030755;28;20138;-64
2022/08/22 11:23:21;;;;;;;4.55;1.08;;;23.10;99.90;;;;;;4974246;28;20533;-64
2022/08/22 11:26:07;;;;;;;5.13;1.10;;;23.20;99.90;;;;;;5013513;28;20495;-66
2022/08/22 11:28:44;;;;;;;8.07;1.25;;;22.90;99.90;;;;;;5012093;28;20044;-66
2022/08/22 11:31:26;;;;;;;3.80;1.10;;;22.80;99.90;;;;;;5017067;28;20079;-65
2022/08/22 11:34:05;;;;;;;6.18;1.20;;;23.20;99.90;;;;;;5033086;28;20034;-65
2022/08/22 11:36:34;;;;;;;6.00;1.50;;;23.00;99.90;;;;;;5032766;28;20049;-66
2022/08/22 11:39:20;;;;;;;8.63;1.45;;;23.30;99.90;;;;;;5032290;28;20048;-66
2022/08/22 11:41:55;;;;;;;4.80;1.02;;;23.10;99.90;;;;;;5032396;28;20112;-66
2022/08/22 11:44:26;;;;;;;3.85;1.33;;;23.00;99.90;;;;;;5025043;28;20037;-66
2022/08/22 11:46:56;;;;;;;5.65;0.90;;;23.50;99.90;;;;;;5015054;28;20045;-66
2022/08/22 11:49:48;;;;;;;3.47;0.82;;;23.30;99.90;;;;;;4999422;28;20052;-66
2022/08/22 11:52:21;;;;;;;6.55;1.20;;;20.90;99.90;;;;;;5027960;28;20037;-66
2022/08/22 11:55:26;;;;;;;3.63;0.98;;;23.50;99.90;;;;;;5016506;28;20491;-66
2022/08/22 11:58:08;;;;;;;5.32;0.90;;;23.30;99.90;;;;;;5018729;28;20058;-66
2022/08/22 12:00:49;;;;;;;14.02;2.20;;;23.30;99.90;;;;;;5033180;28;20048;-66
2022/08/22 12:03:18;;;;;;;14.40;2.80;;;23.30;99.90;;;;;;5032047;28;20053;-66
2022/08/22 12:05:56;;;;;;;4.85;1.05;;;23.40;99.90;;;;;;5014503;28;20057;-66
2022/08/22 12:08:28;;;;;;;5.22;1.38;;;24.20;99.90;;;;;;5013921;28;20499;-65
2022/08/22 12:11:12;;;;;;;7.95;1.63;;;23.20;99.90;;;;;;5019719;28;20348;-66
2022/08/22 12:13:54;;;;;;;6.05;1.00;;;23.20;99.90;;;;;;5005759;28;20041;-65
2022/08/22 12:16:47;;;;;;;4.72;1.38;;;23.40;99.90;;;;;;5019594;28;20037;-65
2022/08/22 12:19:33;;;;;;;8.88;1.45;;;23.30;99.90;;;;;;5031471;28;20041;-65
2022/08/22 12:22:18;;;;;;;6.10;1.08;;;23.30;99.90;;;;;;5006629;28;20091;-64
2022/08/22 12:24:58;;;;;;;5.85;1.48;;;23.20;99.90;;;;;;5014812;28;20092;-65
2022/08/22 12:27:41;;;;;;;7.75;2.20;;;23.20;99.90;;;;;;5003740;28;20104;-65
2022/08/22 12:30:26;;;;;;;6.07;1.38;;;23.40;99.90;;;;;;5023072;28;20197;-65
2022/08/22 12:33:03;;;;;;;6.70;1.47;;;23.20;99.90;;;;;;5024907;28;20399;-66
2022/08/22 12:35:50;;;;;;;6.40;1.48;;;23.10;99.90;;;;;;4999324;28;20351;-65
2022/08/22 12:38:27;;;;;;;7.28;2.22;;;22.80;99.90;;;;;;5022182;28;20045;-65
2022/08/22 12:41:11;;;;;;;15.18;2.75;;;22.80;99.90;;;;;;5010085;28;20048;-64
2022/08/22 12:43:50;;;;;;;11.13;1.60;;;23.00;99.90;;;;;;5027292;28;20046;-63
2022/08/22 12:46:27;;;;;;;11.93;1.85;;;23.30;99.90;;;;;;5011399;28;20049;-66
2022/08/22 12:48:59;;;;;;;7.40;1.42;;;23.30;99.90;;;;;;4999660;28;20037;-66
2022/08/22 12:51:43;;;;;;;7.18;1.50;;;23.50;99.90;;;;;;4998939;28;20050;-66
2022/08/22 12:54:39;;;;;;;8.73;1.73;;;23.50;99.90;;;;;;5012254;28;20065;-65
2022/08/22 12:57:12;;;;;;;5.40;1.75;;;23.00;99.90;;;;;;5008114;28;20047;-64
2022/08/22 12:59:46;;;;;;;6.60;1.35;;;23.10;99.90;;;;;;5021732;28;20033;-67
2022/08/22 13:02:22;;;;;;;8.82;1.40;;;23.50;99.90;;;;;;5026132;28;20080;-67
2022/08/22 13:04:54;;;;;;;6.88;1.60;;;23.40;99.90;;;;;;4996027;28;20061;-66
2022/08/22 13:07:31;;;;;;;10.02;2.20;;;23.10;99.90;;;;;;5030409;28;20041;-66
2022/08/22 13:10:15;;;;;;;8.23;1.35;;;23.60;99.90;;;;;;5021090;28;20037;-67
2022/08/22 13:12:48;;;;;;;9.88;1.55;;;23.50;99.90;;;;;;5024338;28;20042;-67
2022/08/22 13:15:34;;;;;;;7.40;1.40;;;23.50;99.90;;;;;;5006211;28;20033;-66
2022/08/22 13:18:04;;;;;;;4.72;1.45;;;23.40;99.90;;;;;;5008080;28;20036;-66
2022/08/22 13:20:34;;;;;;;5.32;1.40;;;23.40;99.90;;;;;;5002165;28;20056;-67
2022/08/22 13:23:07;;;;;;;5.88;1.52;;;23.60;99.90;;;;;;5018450;28;20050;-66
2022/08/22 13:26:02;;;;;;;7.50;1.35;;;23.70;99.90;;;;;;5013588;28;20042;-67
2022/08/22 13:28:31;;;;;;;11.77;2.13;;;23.40;99.90;;;;;;5023864;28;20037;-66
2022/08/22 13:30:58;;;;;;;8.63;1.58;;;23.70;99.90;;;;;;5029728;28;20037;-67
2022/08/22 13:33:36;;;;;;;5.28;1.83;;;23.30;99.90;;;;;;5008709;28;20045;-67
2022/08/22 13:36:11;;;;;;;10.50;1.58;;;23.30;99.90;;;;;;5012303;28;20574;-66
2022/08/22 13:38:55;;;;;;;7.65;2.55;;;23.40;99.90;;;;;;5029832;28;20037;-66
2022/08/22 13:41:25;;;;;;;3.28;1.40;;;23.30;99.90;;;;;;5017293;28;20650;-66
2022/08/22 13:44:17;;;;;;;6.35;1.20;;;23.20;99.90;;;;;;5012540;28;20033;-66
2022/08/22 13:46:45;;;;;;;7.35;1.85;;;23.30;99.90;;;;;;5016344;28;20142;-66
2022/08/22 13:49:19;;;;;;;5.55;1.52;;;23.50;99.90;;;;;;5033765;28;20029;-66
2022/08/22 13:51:47;;;;;;;5.88;1.08;;;23.50;99.90;;;;;;5036842;28;20621;-67
2022/08/22 13:54:44;;;;;;;8.82;1.60;;;23.40;99.90;;;;;;5021673;28;20124;-67
2022/08/22 13:57:28;;;;;;;5.60;1.15;;;23.50;99.90;;;;;;5016121;28;20037;-72
2022/08/22 14:00:11;;;;;;;7.77;1.37;;;23.90;99.90;;;;;;5031267;28;20037;-73
2022/08/22 14:03:05;;;;;;;8.18;1.55;;;23.80;99.90;;;;;;5031168;28;20091;-70
2022/08/22 14:05:35;;;;;;;7.05;1.90;;;23.90;99.90;;;;;;5014328;28;20060;-71
2022/08/22 14:08:06;;;;;;;6.20;1.30;;;24.20;99.90;;;;;;5014436;28;20048;-71
2022/08/22 14:10:36;;;;;;;9.02;1.88;;;24.40;99.90;;;;;;5014241;28;20120;-71